Stolt Surf — ZCSR3 — position and weather

sailwx.info

Track history (hours):
 
Tides and Currents Weather Stations Pressure Air Temp Water Temp Dewpoint Dewpoint Depression Visibility Wind Speed Wind Dir Waves Ship Positions

Stolt Surf

Last reported at 2015-Apr-17 19:29 UTC. Time now 2015-Apr-19 15:44 UTC.
Position N 36°00' W 005°28'.

Length 163 m; draft 10.7 m.

Type: Ship. MMSI: 319545000.

Date/timePositionNaut miles runAvg speedWind from/ knotsBaromVisibWave heightAir tempDewpointWater temp
2015-Apr-17 19:29N 36°00' W 005°28'6 3.2
2015-Apr-17 17:29N 36°06' W 005°25'0 0.0
2015-Apr-17 16:32N 36°06' W 005°25'0 0.0
2015-Apr-17 15:32N 36°06' W 005°25'0 0.1
2015-Apr-17 14:23N 36°06' W 005°25'0 0.1
2015-Apr-17 13:17N 36°06' W 005°25'0 0.1
2015-Apr-17 12:32N 36°06' W 005°25'0 0.0
2015-Apr-17 11:29N 36°06' W 005°25'0 0.0
2015-Apr-17 10:32N 36°06' W 005°25'0 0.1
2015-Apr-17 09:32N 36°06' W 005°25'0 0.0
2015-Apr-17 07:32N 36°06' W 005°25'0 0.1
2015-Apr-17 06:32N 36°06' W 005°25'0 0.0
2015-Apr-17 05:32N 36°06' W 005°25'0 0.0
2015-Apr-17 04:32N 36°06' W 005°25'1 0.9
2015-Apr-17 03:33N 36°05' W 005°24'1110.7
2015-Apr-17 02:31N 36°04' W 005°10'47912.9
2015-Apr-15 13:16N 37°18' E 004°40'8113.1
2015-Apr-15 07:04N 37°31' E 006°21'913.2
2015-Apr-15 06:22N 37°32' E 006°32'18312.4
2015-Apr-14 15:32N 37°40' E 010°23'1212.7
2015-Apr-14 14:33N 37°36' E 010°38'1312.9
2015-Apr-14 13:33N 37°35' E 010°55'3812.4
2015-Apr-14 10:29N 37°17' E 011°37'1212.7
2015-Apr-14 09:33N 37°11' E 011°50'1312.8
2015-Apr-14 08:33N 37°05' E 012°04'3812.7
2015-Apr-14 05:33N 36°53' E 012°49'1312.6
2015-Apr-14 04:33N 36°49' E 013°04'1312.7
2015-Apr-14 03:33N 36°45' E 013°19'1313.0
2015-Apr-14 02:33N 36°42' E 013°35'1313.1
2015-Apr-14 01:33N 36°37' E 013°50'1513.3
2015-Apr-14 00:26N 36°33' E 014°08'1113.1
2015-Apr-13 23:33N 36°29' E 014°21'1312.8
2015-Apr-13 22:32N 36°25' E 014°37'1312.9
2015-Apr-13 21:33N 36°22' E 014°52'  
Track history (hours):
 
Tides and Currents Weather Stations Pressure Air Temp Water Temp Dewpoint Dewpoint Depression Visibility Wind Speed Wind Dir Waves Ship Positions

Stolt Surf

Last reported at 2015-Apr-17 19:29 UTC. Time now 2015-Apr-19 15:44 UTC.
Position N 36°00' W 005°28'.

Length 163 m; draft 10.7 m.

Type: Ship. MMSI: 319545000.

Date/timePositionNaut miles runAvg speedWind from/ knotsBaromVisibWave heightAir tempDewpointWater temp
2015-Apr-17 19:29N 36°00' W 005°28'6 3.2
2015-Apr-17 17:29N 36°06' W 005°25'0 0.0
2015-Apr-17 16:32N 36°06' W 005°25'0 0.0
2015-Apr-17 15:32N 36°06' W 005°25'0 0.1
2015-Apr-17 14:23N 36°06' W 005°25'0 0.1
2015-Apr-17 13:17N 36°06' W 005°25'0 0.1
2015-Apr-17 12:32N 36°06' W 005°25'0 0.0
2015-Apr-17 11:29N 36°06' W 005°25'0 0.0
2015-Apr-17 10:32N 36°06' W 005°25'0 0.1
2015-Apr-17 09:32N 36°06' W 005°25'0 0.0
2015-Apr-17 07:32N 36°06' W 005°25'0 0.1
2015-Apr-17 06:32N 36°06' W 005°25'0 0.0
2015-Apr-17 05:32N 36°06' W 005°25'0 0.0
2015-Apr-17 04:32N 36°06' W 005°25'1 0.9
2015-Apr-17 03:33N 36°05' W 005°24'1110.7
2015-Apr-17 02:31N 36°04' W 005°10'47912.9
2015-Apr-15 13:16N 37°18' E 004°40'8113.1
2015-Apr-15 07:04N 37°31' E 006°21'913.2
2015-Apr-15 06:22N 37°32' E 006°32'18312.4
2015-Apr-14 15:32N 37°40' E 010°23'1212.7
2015-Apr-14 14:33N 37°36' E 010°38'1312.9
2015-Apr-14 13:33N 37°35' E 010°55'3812.4
2015-Apr-14 10:29N 37°17' E 011°37'1212.7
2015-Apr-14 09:33N 37°11' E 011°50'1312.8
2015-Apr-14 08:33N 37°05' E 012°04'3812.7
2015-Apr-14 05:33N 36°53' E 012°49'1312.6
2015-Apr-14 04:33N 36°49' E 013°04'1312.7
2015-Apr-14 03:33N 36°45' E 013°19'1313.0
2015-Apr-14 02:33N 36°42' E 013°35'1313.1
2015-Apr-14 01:33N 36°37' E 013°50'1513.3
2015-Apr-14 00:26N 36°33' E 014°08'1113.1
2015-Apr-13 23:33N 36°29' E 014°21'1312.8
2015-Apr-13 22:32N 36°25' E 014°37'1312.9
2015-Apr-13 21:33N 36°22' E 014°52'  

Dump ship's entire track history